aviador You're here:

KHSV Decoded Metar

HUNTSVILLE in AL, USA
Report Time2017-11-23 21:53:00
UTC Time2017-11-23 22:14:55
Flight Rules vfr VFR
Wind310° at 04 kt
W.Decomp.*RWY 36: 2.6 kt HW 3 kt LCW
W.Rank310° ranks 22
Current wind is below 310° avg. (6.7)
Visibility9999 m
Phenomena:N/A
Clouds:Few 250 Hf
Expected CloudBase > 5,600 ft AGL from Temp-Dew spread
CeilingNone
Temp14°C (ISA 0)
Dew Point00°C (39% RH)
AAT10.6°C
QNH1017 hPa
Density Alt607 ft
Elevation627 ft
Report Wrong Elevation
Raw Report
METAR KHSV 232153Z 31004KT 10SM FEW250 14/00 A3002 RMK AO2 SLP165 T01440000=

Extra information for KHSV:More info

Metar Taf Metar & Taf Last 4 Metars F.Rules Stats Wind Profile Meteogram Temp Stats Airport Information Weather charts Add Link Nearby VenuesMetar ALERT Operation Metar Decoded Social comments

AIRNAV info for KHSV